Time;durP1;ratioP1;P1;durP2;ratioP2;P2;SDS_P1;SDS_P2;PMS_P1;PMS_P2;Temp;Humidity;BMP_temperature;BMP_pressure;BME280_temperature;BME280_humidity;BME280_pressure;Samples;Min_cycle;Max_cycle;Signal;HPM_P1;HPM_P2
2024/03/24 00:01:32;;;;;;;4.53;2.70;;;16.00;58.80;;;;;;5054371;28;20548;-63
2024/03/24 00:03:57;;;;;;;4.25;2.33;;;16.00;58.80;;;;;;5053545;28;21052;-62
2024/03/24 00:06:23;;;;;;;3.70;2.30;;;16.00;58.90;;;;;;5054570;28;20267;-63
2024/03/24 00:08:48;;;;;;;4.80;2.22;;;16.00;58.80;;;;;;5054274;28;20290;-63
2024/03/24 00:11:14;;;;;;;4.30;2.70;;;16.00;58.80;;;;;;5053705;28;20200;-64
2024/03/24 00:13:40;;;;;;;4.28;2.42;;;16.00;58.80;;;;;;5054621;28;20545;-65
2024/03/24 00:16:06;;;;;;;4.85;2.60;;;16.00;58.90;;;;;;5054453;28;20182;-65
2024/03/24 00:18:32;;;;;;;3.75;2.20;;;16.00;58.90;;;;;;5053818;28;20183;-64
2024/03/24 00:20:57;;;;;;;4.32;2.40;;;15.90;58.90;;;;;;5054580;28;20167;-63
2024/03/24 00:23:23;;;;;;;4.55;2.42;;;16.00;59.00;;;;;;5054363;28;20182;-65
2024/03/24 00:25:48;;;;;;;5.15;2.70;;;15.90;59.00;;;;;;5054148;28;20262;-62
2024/03/24 00:28:14;;;;;;;4.05;2.40;;;15.90;59.00;;;;;;5054429;28;20262;-64
2024/03/24 00:30:39;;;;;;;3.97;2.40;;;15.90;59.10;;;;;;5054022;28;20206;-62
2024/03/24 00:33:05;;;;;;;6.10;2.40;;;15.90;59.00;;;;;;5053954;28;20262;-63
2024/03/24 00:35:30;;;;;;;5.75;2.63;;;15.90;59.10;;;;;;5054164;28;20171;-62
2024/03/24 00:37:56;;;;;;;3.10;2.35;;;15.90;59.20;;;;;;5053632;28;20890;-63
2024/03/24 00:40:21;;;;;;;3.70;2.40;;;15.90;59.10;;;;;;5053923;28;20305;-64
2024/03/24 00:42:47;;;;;;;3.70;2.35;;;15.90;59.20;;;;;;5054427;28;20189;-63
2024/03/24 00:45:12;;;;;;;6.50;2.50;;;15.90;59.20;;;;;;5053320;28;20699;-63
2024/03/24 00:47:38;;;;;;;5.97;2.75;;;15.90;59.20;;;;;;5054191;28;20221;-63
2024/03/24 00:50:04;;;;;;;5.38;2.58;;;15.80;59.10;;;;;;5054054;28;20203;-62
2024/03/24 00:52:30;;;;;;;5.00;2.47;;;15.80;59.10;;;;;;5053370;28;20225;-65
2024/03/24 00:54:55;;;;;;;3.22;2.38;;;15.90;59.20;;;;;;5054241;28;20233;-63
2024/03/24 00:57:21;;;;;;;3.67;2.60;;;15.80;59.20;;;;;;5054074;28;20167;-64
2024/03/24 00:59:47;;;;;;;3.88;2.95;;;15.80;59.20;;;;;;5052267;28;20175;-63
2024/03/24 01:02:13;;;;;;;4.63;2.72;;;15.90;59.90;;;;;;5053083;28;20174;-63
2024/03/24 01:04:38;;;;;;;3.50;2.50;;;15.80;59.20;;;;;;5053224;28;20171;-62
2024/03/24 01:07:04;;;;;;;5.55;2.83;;;15.80;59.20;;;;;;5053191;28;20544;-63
2024/03/24 01:09:29;;;;;;;5.40;2.72;;;15.80;59.20;;;;;;5053482;28;20694;-64
2024/03/24 01:11:55;;;;;;;3.67;2.88;;;15.80;59.20;;;;;;5053752;28;20635;-66
2024/03/24 01:14:20;;;;;;;3.83;2.72;;;15.70;59.10;;;;;;5052559;28;20171;-65
2024/03/24 01:16:46;;;;;;;4.63;3.10;;;15.70;59.10;;;;;;5053813;28;20266;-65
2024/03/24 01:19:11;;;;;;;5.10;3.20;;;15.70;59.20;;;;;;5053322;28;20290;-65
2024/03/24 01:21:37;;;;;;;5.65;3.15;;;15.70;59.20;;;;;;5052997;28;20200;-65
2024/03/24 01:24:03;;;;;;;5.20;3.85;;;15.70;59.10;;;;;;5053699;28;20531;-65
2024/03/24 01:26:29;;;;;;;5.82;3.55;;;15.70;59.10;;;;;;5053390;28;20171;-65
2024/03/24 01:28:54;;;;;;;5.45;3.35;;;15.70;59.10;;;;;;5052226;28;20207;-63
2024/03/24 01:31:20;;;;;;;6.13;3.25;;;15.70;59.10;;;;;;5052507;28;20629;-63
2024/03/24 01:33:45;;;;;;;7.68;3.72;;;15.70;59.10;;;;;;5053263;28;20176;-63
2024/03/24 01:36:11;;;;;;;5.50;3.25;;;15.70;59.10;;;;;;5052094;28;20229;-65
2024/03/24 01:38:36;;;;;;;4.78;3.42;;;15.70;59.10;;;;;;5053504;28;20224;-64
2024/03/24 01:41:02;;;;;;;6.10;3.40;;;15.70;59.10;;;;;;5053215;28;20222;-63
2024/03/24 01:43:30;;;;;;;5.10;3.58;;;15.70;59.10;;;;;;5051965;28;20682;-63
2024/03/24 01:45:55;;;;;;;5.65;3.53;;;15.70;59.10;;;;;;5053028;28;20175;-63
2024/03/24 01:48:21;;;;;;;5.28;3.05;;;15.70;59.00;;;;;;5050446;28;20671;-64
2024/03/24 01:50:46;;;;;;;8.20;3.33;;;15.70;59.10;;;;;;5051197;28;20185;-63
2024/03/24 01:53:12;;;;;;;6.25;3.63;;;15.70;59.10;;;;;;5051131;28;20250;-65
2024/03/24 01:55:37;;;;;;;5.95;4.07;;;15.70;59.10;;;;;;5052220;28;20254;-64
2024/03/24 01:58:03;;;;;;;5.85;3.95;;;15.60;59.10;;;;;;5052291;28;20645;-64
2024/03/24 02:00:29;;;;;;;6.18;3.50;;;15.70;59.10;;;;;;5052075;28;20266;-63
2024/03/24 02:02:55;;;;;;;6.38;3.50;;;15.60;59.10;;;;;;5050515;28;20262;-63
2024/03/24 02:05:24;;;;;;;5.78;3.72;;;15.70;59.10;;;;;;5052293;28;20593;-63
2024/03/24 02:07:50;;;;;;;4.18;3.30;;;15.60;59.10;;;;;;5052377;28;20185;-63
2024/03/24 02:10:16;;;;;;;4.32;3.28;;;15.60;59.20;;;;;;5051519;28;20215;-64
2024/03/24 02:12:41;;;;;;;4.85;3.45;;;15.60;59.10;;;;;;5052574;28;20217;-66
2024/03/24 02:15:07;;;;;;;6.00;3.67;;;15.60;59.20;;;;;;5052504;28;20293;-65
2024/03/24 02:17:33;;;;;;;5.47;3.50;;;15.60;59.10;;;;;;5050768;28;20175;-64
2024/03/24 02:19:58;;;;;;;8.57;3.75;;;15.60;59.10;;;;;;5052329;28;20252;-64
2024/03/24 02:22:24;;;;;;;5.82;3.70;;;15.60;59.10;;;;;;5052552;28;20646;-66
2024/03/24 02:24:49;;;;;;;4.55;3.42;;;15.60;59.20;;;;;;5051755;28;20744;-63
2024/03/24 02:27:15;;;;;;;6.45;3.80;;;15.60;59.20;;;;;;5052008;28;20179;-65
2024/03/24 02:29:40;;;;;;;5.68;3.45;;;15.60;59.20;;;;;;5051892;28;20206;-63
2024/03/24 02:32:07;;;;;;;5.05;3.53;;;15.60;59.20;;;;;;5051632;28;20163;-64
2024/03/24 02:34:32;;;;;;;6.20;3.53;;;15.50;59.20;;;;;;5052087;28;20574;-63
2024/03/24 02:36:58;;;;;;;6.38;3.90;;;15.50;59.20;;;;;;5051410;28;20170;-64
2024/03/24 02:39:23;;;;;;;4.70;3.83;;;15.60;59.30;;;;;;5051379;28;20182;-65
2024/03/24 02:41:49;;;;;;;5.43;3.58;;;15.50;59.20;;;;;;5052089;28;20223;-65
2024/03/24 02:44:15;;;;;;;5.22;3.35;;;15.60;59.10;;;;;;5051775;28;20590;-65
2024/03/24 02:46:40;;;;;;;4.78;3.13;;;15.50;59.20;;;;;;5050366;28;20641;-64
2024/03/24 02:49:06;;;;;;;5.88;3.65;;;15.50;59.30;;;;;;5049751;28;20673;-63
2024/03/24 02:51:31;;;;;;;4.65;3.63;;;15.50;59.20;;;;;;5050514;28;20177;-65
2024/03/24 02:53:57;;;;;;;4.32;3.33;;;15.50;59.90;;;;;;5051319;28;20677;-65
2024/03/24 02:56:22;;;;;;;5.93;3.03;;;15.50;59.20;;;;;;5051027;28;20186;-66
2024/03/24 02:58:48;;;;;;;5.30;3.17;;;15.50;59.20;;;;;;5051173;28;20179;-65
2024/03/24 03:01:13;;;;;;;5.72;3.28;;;15.50;59.30;;;;;;5051671;28;20301;-64
2024/03/24 03:03:43;;;;;;;4.50;3.65;;;15.50;59.40;;;;;;5052076;28;20698;-64
2024/03/24 03:06:09;;;;;;;4.80;3.50;;;15.50;59.30;;;;;;5051051;28;20233;-65
2024/03/24 03:08:34;;;;;;;4.63;3.17;;;15.50;59.30;;;;;;5051866;28;20195;-65
2024/03/24 03:11:00;;;;;;;4.38;3.08;;;15.50;59.30;;;;;;5051748;28;20178;-65
2024/03/24 03:13:26;;;;;;;4.45;2.78;;;15.50;59.50;;;;;;5050766;28;20271;-65
2024/03/24 03:15:51;;;;;;;4.22;2.85;;;15.50;59.50;;;;;;5051507;28;20209;-65
2024/03/24 03:18:17;;;;;;;5.50;2.67;;;15.50;59.40;;;;;;5051332;28;20262;-65
2024/03/24 03:20:42;;;;;;;4.13;3.20;;;15.50;59.40;;;;;;5050813;28;20182;-64
2024/03/24 03:23:08;;;;;;;3.88;3.15;;;15.50;59.40;;;;;;5051667;28;20178;-65
2024/03/24 03:25:35;;;;;;;5.88;2.80;;;15.50;59.30;;;;;;5051809;28;20167;-63
2024/03/24 03:28:01;;;;;;;5.63;3.40;;;15.50;59.40;;;;;;5052704;28;20554;-63
2024/03/24 03:30:27;;;;;;;4.40;3.05;;;15.40;59.30;;;;;;5054931;28;20253;-62
2024/03/24 03:32:52;;;;;;;3.15;2.50;;;15.40;59.50;;;;;;5054771;28;20171;-63
2024/03/24 03:35:18;;;;;;;5.22;2.80;;;15.50;59.60;;;;;;5054069;28;20182;-63
2024/03/24 03:37:43;;;;;;;4.03;2.90;;;15.50;59.60;;;;;;5055187;28;20217;-64
2024/03/24 03:40:10;;;;;;;4.65;2.95;;;15.50;59.60;;;;;;5054316;28;20215;-64
2024/03/24 03:42:36;;;;;;;4.28;2.88;;;15.40;59.50;;;;;;5054168;28;20257;-63
2024/03/24 03:45:02;;;;;;;4.60;2.72;;;15.40;59.60;;;;;;5053769;28;20692;-63
2024/03/24 03:47:27;;;;;;;4.32;2.80;;;15.40;59.60;;;;;;5053910;28;20950;-64
2024/03/24 03:49:53;;;;;;;4.97;3.00;;;15.40;59.60;;;;;;5053486;28;20695;-64
2024/03/24 03:52:25;;;;;;;3.67;2.45;;;15.40;59.70;;;;;;5054597;28;20181;-66
2024/03/24 03:54:53;;;;;;;3.90;2.53;;;15.40;59.80;;;;;;5054633;28;20185;-64
2024/03/24 03:57:19;;;;;;;4.65;2.83;;;15.40;59.70;;;;;;5055048;28;20175;-65
2024/03/24 03:59:44;;;;;;;4.18;2.88;;;15.40;59.90;;;;;;5054794;28;20630;-63
2024/03/24 04:02:11;;;;;;;2.67;2.42;;;15.40;60.20;;;;;;5053789;28;20233;-65
2024/03/24 04:04:37;;;;;;;3.85;2.47;;;15.40;60.30;;;;;;5055304;28;20538;-63
2024/03/24 04:07:02;;;;;;;1.90;1.70;;;15.40;60.30;;;;;;5054806;28;20636;-64
2024/03/24 04:09:28;;;;;;;3.65;2.88;;;15.40;60.40;;;;;;5054284;28;20225;-65
2024/03/24 04:11:54;;;;;;;4.55;2.72;;;15.40;60.30;;;;;;5054633;28;20182;-65
2024/03/24 04:14:19;;;;;;;2.08;1.90;;;15.40;60.30;;;;;;5054574;28;20203;-67
2024/03/24 04:16:45;;;;;;;3.05;2.25;;;15.40;60.40;;;;;;5054323;28;20186;-65
2024/03/24 04:19:11;;;;;;;2.33;2.13;;;15.40;60.30;;;;;;5054622;28;20179;-65
2024/03/24 04:21:36;;;;;;;2.63;2.20;;;15.40;60.50;;;;;;5054987;28;20198;-66
2024/03/24 04:24:02;;;;;;;2.10;1.80;;;15.30;60.40;;;;;;5054139;28;20189;-65
2024/03/24 04:26:27;;;;;;;2.90;1.80;;;15.40;60.30;;;;;;5054132;28;20182;-65
2024/03/24 04:28:53;;;;;;;3.22;2.03;;;15.30;60.30;;;;;;5054192;28;20657;-63
2024/03/24 04:31:18;;;;;;;3.15;2.10;;;15.30;60.40;;;;;;5053677;28;20179;-64
2024/03/24 04:33:44;;;;;;;2.83;1.90;;;15.40;60.50;;;;;;5054795;28;20170;-63
2024/03/24 04:36:10;;;;;;;2.63;1.98;;;15.40;60.50;;;;;;5054262;28;20168;-66
2024/03/24 04:38:35;;;;;;;1.95;1.70;;;15.30;60.40;;;;;;5052934;28;20252;-65
2024/03/24 04:41:01;;;;;;;2.10;1.80;;;15.30;60.40;;;;;;5053470;28;20234;-64
2024/03/24 04:43:28;;;;;;;4.93;2.08;;;15.40;60.40;;;;;;5053864;28;20198;-65
2024/03/24 04:45:53;;;;;;;3.28;1.80;;;15.30;60.40;;;;;;5053441;28;20254;-64
2024/03/24 04:48:19;;;;;;;3.33;2.45;;;15.30;60.40;;;;;;5053826;28;20694;-65
2024/03/24 04:50:45;;;;;;;2.03;1.80;;;15.30;60.40;;;;;;5054509;28;20186;-64
2024/03/24 04:53:10;;;;;;;3.20;2.03;;;15.30;60.40;;;;;;5053095;28;20178;-66
2024/03/24 04:55:36;;;;;;;1.88;1.58;;;15.30;60.30;;;;;;5054154;28;20529;-65
2024/03/24 04:58:02;;;;;;;3.10;1.83;;;15.30;60.40;;;;;;5053698;28;20613;-64
2024/03/24 05:00:28;;;;;;;4.70;2.00;;;15.30;60.40;;;;;;5053343;28;20266;-63
2024/03/24 05:02:54;;;;;;;3.33;2.20;;;15.30;60.50;;;;;;5054091;28;20217;-64
2024/03/24 05:05:19;;;;;;;1.60;1.48;;;15.30;60.50;;;;;;5052986;28;20267;-64
2024/03/24 05:07:48;;;;;;;2.90;2.08;;;15.30;60.50;;;;;;5053803;28;20191;-64
2024/03/24 05:10:14;;;;;;;2.25;2.00;;;15.30;60.30;;;;;;5052272;28;20234;-64
2024/03/24 05:12:39;;;;;;;2.78;2.08;;;15.30;60.40;;;;;;5052741;28;20724;-65
2024/03/24 05:15:05;;;;;;;2.22;1.92;;;15.30;60.50;;;;;;5053921;28;20254;-64
2024/03/24 05:17:30;;;;;;;3.13;1.70;;;15.30;60.40;;;;;;5053667;28;20274;-65
2024/03/24 05:19:56;;;;;;;3.00;1.80;;;15.30;60.50;;;;;;5052928;28;20186;-65
2024/03/24 05:22:21;;;;;;;2.78;2.22;;;15.30;60.50;;;;;;5053633;28;20179;-66
2024/03/24 05:24:47;;;;;;;2.30;1.98;;;15.20;60.40;;;;;;5053798;28;20542;-64
2024/03/24 05:27:15;;;;;;;2.50;1.60;;;15.30;60.50;;;;;;5052338;28;20167;-64
2024/03/24 05:29:41;;;;;;;3.83;1.75;;;15.30;60.30;;;;;;5053617;28;20273;-62
2024/03/24 05:32:06;;;;;;;2.58;1.77;;;15.20;60.20;;;;;;5053832;28;20629;-63
2024/03/24 05:34:35;;;;;;;2.08;1.45;;;15.20;60.30;;;;;;5052938;28;20626;-63
2024/03/24 05:37:01;;;;;;;2.17;1.65;;;15.20;60.30;;;;;;5053791;28;20178;-64
2024/03/24 05:39:26;;;;;;;3.80;1.75;;;15.20;60.10;;;;;;5053288;28;20171;-63
2024/03/24 05:41:52;;;;;;;2.45;1.70;;;15.20;60.00;;;;;;5052493;28;20248;-64
2024/03/24 05:44:17;;;;;;;3.53;1.85;;;15.20;59.90;;;;;;5053051;28;20511;-64
2024/03/24 05:46:43;;;;;;;2.08;1.77;;;15.20;59.90;;;;;;5052641;28;20175;-63
2024/03/24 05:49:11;;;;;;;3.42;1.80;;;15.20;60.30;;;;;;5051096;28;20221;-64
2024/03/24 05:51:37;;;;;;;2.45;1.52;;;15.20;60.50;;;;;;5052759;28;20205;-64
2024/03/24 05:54:07;;;;;;;2.53;1.70;;;15.20;60.40;;;;;;5052824;28;20183;-65
2024/03/24 05:56:33;;;;;;;2.03;1.70;;;15.30;60.40;;;;;;5052034;28;20175;-65
2024/03/24 05:58:58;;;;;;;2.80;1.70;;;15.30;60.20;;;;;;5052904;28;20177;-65
2024/03/24 06:01:25;;;;;;;1.95;1.50;;;15.30;60.10;;;;;;5052052;28;20656;-64
2024/03/24 06:03:53;;;;;;;2.33;1.42;;;15.30;60.10;;;;;;5052618;28;20630;-64
2024/03/24 06:06:19;;;;;;;1.40;1.30;;;15.40;60.20;;;;;;5052386;28;20191;-64
2024/03/24 06:08:44;;;;;;;1.55;1.38;;;15.50;61.10;;;;;;5051815;28;20198;-64
2024/03/24 06:11:10;;;;;;;1.33;1.23;;;15.50;60.20;;;;;;5052279;28;20179;-65
2024/03/24 06:13:36;;;;;;;2.00;1.40;;;15.50;60.10;;;;;;5052844;28;20187;-66
2024/03/24 06:16:01;;;;;;;1.98;1.35;;;15.60;60.00;;;;;;5052062;28;20547;-64
2024/03/24 06:18:27;;;;;;;1.48;1.38;;;15.50;59.80;;;;;;5052196;28;20294;-64
2024/03/24 06:20:53;;;;;;;1.85;1.33;;;15.50;59.90;;;;;;5052029;28;20237;-63
2024/03/24 06:23:19;;;;;;;1.50;1.30;;;15.50;60.00;;;;;;5051395;28;20182;-63
2024/03/24 06:25:44;;;;;;;1.90;1.63;;;15.40;60.00;;;;;;5052354;28;20598;-63
2024/03/24 06:28:10;;;;;;;1.45;1.35;;;15.40;60.10;;;;;;5051987;28;20625;-64
2024/03/24 06:30:35;;;;;;;2.45;1.67;;;15.40;60.20;;;;;;5051210;28;20211;-61
2024/03/24 06:33:01;;;;;;;1.63;1.30;;;15.50;60.20;;;;;;5051945;28;20171;-63
2024/03/24 06:35:26;;;;;;;2.10;1.20;;;15.50;60.20;;;;;;5051991;28;20175;-63
2024/03/24 06:37:52;;;;;;;1.20;1.10;;;15.50;60.20;;;;;;5051632;28;20532;-63
2024/03/24 06:40:17;;;;;;;1.85;1.52;;;15.50;60.10;;;;;;5051361;28;20229;-64
2024/03/24 06:42:44;;;;;;;1.67;1.40;;;15.50;60.00;;;;;;5051587;28;20183;-63
2024/03/24 06:45:12;;;;;;;2.08;1.30;;;15.60;60.00;;;;;;5050093;28;20179;-62
2024/03/24 06:47:38;;;;;;;1.85;1.45;;;15.60;60.00;;;;;;5051477;28;20167;-63
2024/03/24 06:50:07;;;;;;;1.58;1.33;;;15.50;60.00;;;;;;5052043;28;20217;-63
2024/03/24 06:52:33;;;;;;;1.15;1.10;;;15.60;60.00;;;;;;5050722;28;20175;-64
2024/03/24 06:54:59;;;;;;;1.45;1.10;;;15.60;60.00;;;;;;5050232;28;20175;-64
2024/03/24 06:57:25;;;;;;;1.52;1.23;;;15.70;59.90;;;;;;5051859;28;20731;-63
2024/03/24 06:59:50;;;;;;;1.75;1.20;;;15.80;59.80;;;;;;5050429;28;20278;-62
2024/03/24 07:02:16;;;;;;;1.58;1.05;;;15.90;59.70;;;;;;5051178;28;20250;-63
2024/03/24 07:04:41;;;;;;;2.05;1.25;;;16.00;59.60;;;;;;5051224;28;20175;-61
2024/03/24 07:07:07;;;;;;;1.67;1.33;;;16.20;59.40;;;;;;5051096;28;20179;-62
2024/03/24 07:09:33;;;;;;;1.35;1.10;;;16.40;59.20;;;;;;5051297;28;20210;-63
2024/03/24 07:11:58;;;;;;;1.95;1.25;;;16.50;58.90;;;;;;5050758;28;20179;-64
2024/03/24 07:14:24;;;;;;;1.48;1.00;;;16.70;58.80;;;;;;5050974;28;20190;-65
2024/03/24 07:16:49;;;;;;;1.08;0.98;;;16.80;58.50;;;;;;5051671;28;20167;-64
2024/03/24 07:19:15;;;;;;;1.70;1.15;;;16.90;58.40;;;;;;5050643;28;20186;-64
2024/03/24 07:21:41;;;;;;;2.00;1.10;;;17.00;58.20;;;;;;5051705;28;20172;-64
2024/03/24 07:24:08;;;;;;;1.50;0.90;;;17.10;58.00;;;;;;5051121;28;20191;-64
2024/03/24 07:26:33;;;;;;;1.92;1.30;;;17.20;57.90;;;;;;5050920;28;20175;-63
2024/03/24 07:28:59;;;;;;;1.60;1.00;;;17.10;57.90;;;;;;5051362;28;20256;-62
2024/03/24 07:31:24;;;;;;;2.50;1.30;;;17.20;57.90;;;;;;5051132;28;20696;-62
2024/03/24 07:33:50;;;;;;;1.77;1.23;;;17.20;57.80;;;;;;5051017;28;20181;-62
2024/03/24 07:36:16;;;;;;;2.83;1.17;;;17.30;57.70;;;;;;5051357;28;20190;-64
2024/03/24 07:38:41;;;;;;;1.35;1.23;;;17.40;57.60;;;;;;5051489;28;20576;-63
2024/03/24 07:41:07;;;;;;;2.05;1.00;;;17.40;57.50;;;;;;5037337;28;20686;-63
2024/03/24 07:43:32;;;;;;;1.52;1.02;;;17.40;57.50;;;;;;5030381;28;20631;-62
2024/03/24 07:45:58;;;;;;;2.03;1.10;;;17.30;57.60;;;;;;5031026;28;20172;-63
2024/03/24 07:48:23;;;;;;;1.20;1.02;;;17.30;57.60;;;;;;5030696;28;20266;-63
2024/03/24 07:50:49;;;;;;;1.67;1.00;;;17.40;57.60;;;;;;5031498;28;20180;-62
2024/03/24 07:53:14;;;;;;;2.28;1.15;;;17.40;57.60;;;;;;5030815;28;20317;-63
2024/03/24 07:55:43;;;;;;;2.22;1.00;;;17.40;57.60;;;;;;5031093;28;20646;-63
2024/03/24 07:58:09;;;;;;;1.50;1.00;;;17.40;57.60;;;;;;5031235;28;20176;-64
2024/03/24 08:00:34;;;;;;;2.10;1.00;;;17.40;57.60;;;;;;5031566;28;20180;-62
2024/03/24 08:03:00;;;;;;;1.10;1.00;;;17.40;57.60;;;;;;5030741;28;20172;-63
2024/03/24 08:05:25;;;;;;;2.00;1.38;;;17.40;57.60;;;;;;5030494;28;20183;-63
2024/03/24 08:07:51;;;;;;;1.27;1.02;;;17.40;57.60;;;;;;5031203;28;20218;-62
2024/03/24 08:10:17;;;;;;;0.98;0.90;;;17.50;57.60;;;;;;5030051;28;20582;-63
2024/03/24 08:12:42;;;;;;;1.02;0.90;;;17.50;57.60;;;;;;5031440;28;20191;-64
2024/03/24 08:15:08;;;;;;;2.90;1.20;;;17.50;57.70;;;;;;5038221;28;20218;-64
2024/03/24 08:17:33;;;;;;;3.90;0.95;;;17.50;57.70;;;;;;5043916;28;20219;-64
2024/03/24 08:19:59;;;;;;;2.90;1.48;;;17.50;57.80;;;;;;5045484;28;20190;-63
2024/03/24 08:22:24;;;;;;;1.83;1.17;;;17.50;57.80;;;;;;5043263;28;20176;-64
2024/03/24 08:24:50;;;;;;;1.92;1.00;;;17.50;57.90;;;;;;5043958;28;20171;-61
2024/03/24 08:27:15;;;;;;;1.63;1.33;;;17.50;57.90;;;;;;5045309;28;20179;-62
2024/03/24 08:29:41;;;;;;;1.00;0.90;;;17.60;57.90;;;;;;5043256;28;20204;-60
2024/03/24 08:32:07;;;;;;;2.58;1.38;;;17.60;58.10;;;;;;5043970;28;20171;-62
2024/03/24 08:34:33;;;;;;;2.10;1.13;;;17.50;58.20;;;;;;5045082;28;20179;-61
2024/03/24 08:36:58;;;;;;;1.90;1.08;;;17.50;58.40;;;;;;5045063;28;20176;-62
2024/03/24 08:39:24;;;;;;;2.55;1.10;;;17.50;58.50;;;;;;5043995;28;20707;-63
2024/03/24 08:41:49;;;;;;;2.90;1.30;;;17.50;58.60;;;;;;5034282;28;20306;-62
2024/03/24 08:44:15;;;;;;;4.22;1.20;;;17.50;58.70;;;;;;5033241;28;20275;-62
2024/03/24 08:46:40;;;;;;;2.67;1.20;;;17.50;58.70;;;;;;5034722;28;20255;-62
2024/03/24 08:49:06;;;;;;;3.13;1.10;;;17.50;58.70;;;;;;5034190;28;20662;-62
2024/03/24 08:51:32;;;;;;;2.33;1.08;;;17.40;58.60;;;;;;5033427;28;20576;-63
2024/03/24 08:53:57;;;;;;;3.30;1.27;;;17.30;58.80;;;;;;5034449;28;20712;-63
2024/03/24 08:56:23;;;;;;;2.60;1.40;;;17.20;59.00;;;;;;5033954;28;20168;-64
2024/03/24 08:58:48;;;;;;;2.30;1.30;;;17.10;59.00;;;;;;5033778;28;20192;-62
2024/03/24 09:01:14;;;;;;;2.08;1.00;;;17.10;59.30;;;;;;5034016;28;20210;-62
2024/03/24 09:03:39;;;;;;;1.85;1.20;;;17.10;59.30;;;;;;5034212;28;20203;-62
2024/03/24 09:06:06;;;;;;;2.30;1.13;;;17.10;59.30;;;;;;5033218;28;20211;-62
2024/03/24 09:08:33;;;;;;;1.90;1.10;;;17.10;59.90;;;;;;5033639;28;20526;-62
2024/03/24 09:10:58;;;;;;;1.83;1.00;;;17.10;59.30;;;;;;5034103;28;20187;-62
2024/03/24 09:13:24;;;;;;;1.73;1.00;;;17.00;59.20;;;;;;5032259;28;20537;-64
2024/03/24 09:15:49;;;;;;;1.23;0.93;;;17.00;59.30;;;;;;5032990;28;20726;-62
2024/03/24 09:18:15;;;;;;;2.08;1.23;;;17.00;59.40;;;;;;5033746;28;20176;-64
2024/03/24 09:20:40;;;;;;;4.95;1.20;;;16.90;59.50;;;;;;5033127;28;20298;-62
2024/03/24 09:23:06;;;;;;;2.42;1.30;;;16.80;59.50;;;;;;5033934;28;20176;-62
2024/03/24 09:25:31;;;;;;;2.50;1.20;;;16.80;59.50;;;;;;5032256;28;20184;-62
2024/03/24 09:27:58;;;;;;;2.95;1.38;;;16.80;59.60;;;;;;5033660;28;20541;-62
2024/03/24 09:30:23;;;;;;;1.83;0.82;;;16.80;59.50;;;;;;5033354;28;20294;-61
2024/03/24 09:32:49;;;;;;;2.75;1.15;;;16.80;59.50;;;;;;5032827;28;20258;-61
2024/03/24 09:35:14;;;;;;;2.95;1.30;;;16.80;59.50;;;;;;5033405;28;20180;-61
2024/03/24 09:37:40;;;;;;;1.50;1.08;;;16.80;59.40;;;;;;5033793;28;20175;-62
2024/03/24 09:40:06;;;;;;;1.83;1.17;;;16.80;59.40;;;;;;5032633;28;20600;-62
2024/03/24 09:42:32;;;;;;;1.90;1.10;;;16.80;59.50;;;;;;5033228;28;20167;-61
2024/03/24 09:44:59;;;;;;;2.47;1.20;;;16.80;59.50;;;;;;5033380;28;20171;-61
2024/03/24 09:47:26;;;;;;;2.05;0.82;;;16.70;59.40;;;;;;5032385;28;20254;-62
2024/03/24 09:49:51;;;;;;;1.95;1.23;;;16.70;59.50;;;;;;5031839;28;20234;-62
2024/03/24 09:52:17;;;;;;;1.65;1.00;;;16.60;59.50;;;;;;5033008;28;20168;-63
2024/03/24 09:54:42;;;;;;;1.52;1.13;;;16.60;59.60;;;;;;5031246;28;20176;-63
2024/03/24 09:57:08;;;;;;;2.13;1.20;;;16.60;59.60;;;;;;5031772;28;20179;-64
2024/03/24 09:59:33;;;;;;;2.50;1.13;;;16.70;59.60;;;;;;5033041;28;20190;-63
2024/03/24 10:01:59;;;;;;;2.65;1.17;;;16.70;59.50;;;;;;5031055;28;20589;-63
2024/03/24 10:04:24;;;;;;;1.77;1.13;;;16.70;59.50;;;;;;5031440;28;20222;-63
2024/03/24 10:06:50;;;;;;;4.45;1.23;;;16.70;60.20;;;;;;5031911;28;20214;-63
2024/03/24 10:09:15;;;;;;;2.30;1.05;;;16.60;59.50;;;;;;5031324;28;20266;-64
2024/03/24 10:11:41;;;;;;;2.35;1.38;;;16.60;59.50;;;;;;5032707;28;20182;-64
2024/03/24 10:14:07;;;;;;;1.95;1.30;;;16.60;59.60;;;;;;5032739;28;20198;-64
2024/03/24 10:16:33;;;;;;;1.58;1.33;;;16.60;59.60;;;;;;5032043;28;20184;-64
2024/03/24 10:19:11;;;;;;;2.40;1.40;;;16.50;59.80;;;;;;5032376;28;20673;-64
2024/03/24 10:21:37;;;;;;;1.55;0.88;;;16.50;59.80;;;;;;5031016;28;20333;-64
2024/03/24 10:24:07;;;;;;;2.15;0.98;;;16.50;59.80;;;;;;5032430;28;20638;-65
2024/03/24 10:26:36;;;;;;;1.80;1.00;;;16.60;59.90;;;;;;5031531;28;20194;-64
2024/03/24 10:29:03;;;;;;;2.47;1.20;;;16.50;59.80;;;;;;5031745;28;20282;-63
2024/03/24 10:31:29;;;;;;;3.90;1.42;;;16.60;59.80;;;;;;5031674;28;20186;-63
2024/03/24 10:33:55;;;;;;;3.50;1.55;;;16.50;59.80;;;;;;5032297;28;20176;-63
2024/03/24 10:36:21;;;;;;;2.63;1.20;;;16.50;59.90;;;;;;5029845;28;20191;-64
2024/03/24 10:38:47;;;;;;;2.83;1.15;;;16.50;59.90;;;;;;5030482;28;20175;-64
2024/03/24 10:41:12;;;;;;;3.33;1.23;;;16.50;60.10;;;;;;5036297;28;20306;-62
2024/03/24 10:43:38;;;;;;;4.80;1.42;;;16.50;60.30;;;;;;5040174;28;20171;-73
2024/03/24 10:46:06;;;;;;;3.58;1.08;;;16.50;61.30;;;;;;5041100;28;20297;-68
2024/03/24 10:48:32;;;;;;;6.43;1.58;;;16.60;60.10;;;;;;5039521;28;20715;-69
2024/03/24 10:50:59;;;;;;;2.80;1.30;;;16.70;60.80;;;;;;5045611;28;20245;-69
2024/03/24 10:53:29;;;;;;;3.50;1.40;;;16.70;60.40;;;;;;5051645;28;20179;-70
2024/03/24 10:55:59;;;;;;;4.53;1.70;;;16.70;60.20;;;;;;5050555;28;20171;-70
2024/03/24 10:58:25;;;;;;;2.38;1.40;;;16.80;60.70;;;;;;5050669;28;20175;-66
2024/03/24 11:00:51;;;;;;;4.47;1.52;;;16.90;60.70;;;;;;5051427;28;20538;-68
2024/03/24 11:03:17;;;;;;;6.15;1.50;;;16.80;60.60;;;;;;5051433;28;20518;-69
2024/03/24 11:05:43;;;;;;;3.97;1.45;;;16.80;60.70;;;;;;5051210;28;20743;-68
2024/03/24 11:08:10;;;;;;;8.00;1.98;;;16.80;60.70;;;;;;5051518;28;20198;-71
2024/03/24 11:10:36;;;;;;;4.15;1.40;;;16.90;60.90;;;;;;5051835;28;20220;-68
2024/03/24 11:13:02;;;;;;;4.40;1.77;;;16.80;60.70;;;;;;5050899;28;20167;-68
2024/03/24 11:15:28;;;;;;;4.78;1.42;;;16.90;60.90;;;;;;5050645;28;20267;-69
2024/03/24 11:17:54;;;;;;;4.43;1.60;;;16.80;60.80;;;;;;5049541;28;20275;-69
2024/03/24 11:20:23;;;;;;;4.88;1.48;;;16.90;60.90;;;;;;5051497;28;20197;-69
2024/03/24 11:22:49;;;;;;;6.35;1.55;;;16.90;60.90;;;;;;5051842;28;20167;-68
2024/03/24 11:25:15;;;;;;;5.53;1.67;;;17.00;60.90;;;;;;5049288;28;20633;-68
2024/03/24 11:27:44;;;;;;;6.45;1.80;;;16.90;60.90;;;;;;5049720;28;20218;-69
2024/03/24 11:30:16;;;;;;;3.22;1.55;;;17.00;60.70;;;;;;5051318;28;20202;-69
2024/03/24 11:32:51;;;;;;;5.82;1.52;;;17.10;60.70;;;;;;5048232;28;20182;-69
2024/03/24 11:35:27;;;;;;;6.07;1.60;;;17.00;60.60;;;;;;5049509;28;20183;-68
2024/03/24 11:37:53;;;;;;;6.57;1.92;;;17.00;60.90;;;;;;5051196;28;20262;-72
2024/03/24 11:40:27;;;;;;;4.55;1.67;;;17.10;60.90;;;;;;5050041;28;20717;-70
2024/03/24 11:42:53;;;;;;;5.35;1.52;;;17.10;60.70;;;;;;5051212;28;20190;-67
2024/03/24 11:45:28;;;;;;;5.60;1.73;;;17.10;60.80;;;;;;5051052;28;20183;-67
2024/03/24 11:48:17;;;;;;;5.10;1.70;;;17.00;60.60;;;;;;5050121;28;20294;-67
2024/03/24 11:50:43;;;;;;;8.23;1.70;;;17.00;60.80;;;;;;5054710;28;20242;-66
2024/03/24 11:53:09;;;;;;;4.43;1.90;;;17.00;60.90;;;;;;5053514;28;20203;-67
2024/03/24 11:55:35;;;;;;;4.95;1.83;;;17.00;61.10;;;;;;5053167;28;20194;-68
2024/03/24 11:58:00;;;;;;;6.03;1.77;;;16.90;61.10;;;;;;5053993;28;20167;-67
2024/03/24 12:00:29;;;;;;;7.57;1.83;;;16.80;61.00;;;;;;5052805;28;20593;-69
2024/03/24 12:02:54;;;;;;;4.05;1.58;;;16.90;61.00;;;;;;5036576;28;20234;-68
2024/03/24 12:05:20;;;;;;;4.38;1.70;;;17.10;60.70;;;;;;5054883;28;20175;-68
2024/03/24 12:07:45;;;;;;;6.07;1.98;;;17.10;60.40;;;;;;5053214;28;20171;-69
2024/03/24 12:10:11;;;;;;;2.83;1.70;;;17.10;60.40;;;;;;5053216;28;20207;-69
2024/03/24 12:12:36;;;;;;;5.78;1.70;;;17.00;60.40;;;;;;5054073;28;20171;-69
2024/03/24 12:15:02;;;;;;;5.90;1.88;;;17.10;60.50;;;;;;5054356;28;20628;-67
2024/03/24 12:17:28;;;;;;;5.05;2.15;;;17.00;60.40;;;;;;5054517;28;20175;-68
2024/03/24 12:19:53;;;;;;;5.10;1.60;;;16.90;60.40;;;;;;5051227;28;20176;-68
2024/03/24 12:22:19;;;;;;;5.30;1.80;;;17.00;60.30;;;;;;5044093;28;20172;-69
2024/03/24 12:24:44;;;;;;;7.60;1.60;;;17.00;60.20;;;;;;5043200;28;20180;-65
2024/03/24 12:27:10;;;;;;;3.70;1.70;;;17.00;60.50;;;;;;5043015;28;20176;-65
2024/03/24 12:29:35;;;;;;;4.30;1.80;;;17.00;60.90;;;;;;5042902;28;20206;-65
2024/03/24 12:32:01;;;;;;;3.95;1.52;;;17.10;60.40;;;;;;5043766;28;20168;-65
2024/03/24 12:34:26;;;;;;;5.32;1.70;;;17.10;60.10;;;;;;5037388;28;20267;-65
2024/03/24 12:36:53;;;;;;;6.18;1.73;;;17.10;60.00;;;;;;5034189;28;20267;-66
2024/03/24 12:39:18;;;;;;;5.40;1.90;;;17.30;60.80;;;;;;5034697;28;20187;-65
2024/03/24 12:41:44;;;;;;;4.43;1.73;;;17.30;59.90;;;;;;5040828;28;20219;-65